RPLI

Details ICAO RPLI (LAO)
Name LAOAG INTL
Region Philippines
Timezone Asia/Manila (UTC+8.0)
Plans Departing 57
Arriving 57
Stats Elevation 24 ft / 7 m (AMSL)
Location 18.176100° 120.531000°
Runways 1
Magnetic Variation 2.957° W
Sunrise 2018-12-14 22:22:43 UTC / 2018-12-15 06:22:43 Local
Sunset 2018-12-15 09:25:34 UTC / 2018-12-15 17:25:34 Local
Advertisement - Login to hide

Runways

ID Width Length Bearing (true/mag) Surface Threshold Overrun Markings Lighting
01 148 ft / 45 m 9,181 ft / 2,798 m 5.41° / 8.36° CONCRETE 1,181 ft / 360 m 0 ft / 0 m PREC-APP CENTERLINE EDGE THRESHOLD
19 148 ft / 45 m 9,181 ft / 2,798 m 185.41° / 188.36° CONCRETE 0 ft / 0 m 0 ft / 0 m PREC-APP CENTERLINE EDGE THRESHOLD

Map

Weather


0- 5 10 15 20 25 30 35+ Temperature / °C

Clouds and Precipitation
Forecast for 2018-12-15 00:00 UTC. Updated 3 hours ago

Ground ~20,000 ft ~40,000 ft Winds

METAR

RPLI 150000Z 07004KT 8000 FEW018 27/21 Q1015 NOSIG RMK A2997

TAF

TAF RPLI 142300Z 1500/1524 07008KT 9999 FEW018 TEMPO 1500/1506 06010G20KT

Frequencies

Tower 118.10 MHz
Approach 122.30 MHz
Warning: Do not use this data for real-world aviation or navigation. No guarantee of current accuracy is given.